Copeland, KS (67837)

8:50 PM CDT on May 25, 2015 (GMT -0500)
Crooked Creek Ag, Inc. Copeland, KS | | Change Station
CLOSE
Current Station
Personal Weather Station
Location: Copeland, KS
Elevation: 2789 ft
Nearby Weather Stations
Active Advisory: Special Statement

Elev 2789 ft 37.59 °N, 100.59 °W | Updated 12 minutes ago

Partly Cloudy
Partly Cloudy
65.7 °F
Feels Like 65.7 °F
N
9.0
Wind Variable Wind from SE
Gusts 12.0 mph

Today
High -- | Low -- °F
--% Chance of Precip.
Yesterday
High -- | Low -- °F
Precip. -- in
6:26 AM 8:53 PM
First Quarter, 53% visible
Pressure 29.80 in
Visibility 7.0 miles
Clouds Clear
Dew Point 57 °F
Humidity 73%
Rainfall 0.56 in
Snow Depth Not available.
UV 1 out of 12
Pollen 7.60 out of 12
Air Quality Not available.
Flu Activity No Activity
METAR KGCK 260054Z 24005KT 7SM CLR 22/11 A2980

More Conditions Fewer Conditions

Pressure 29.80 in
Visibility 7.0 miles
Clouds Clear
Dew Point 57 °F
Humidity 73%
Rainfall 0.56 in
Snow Depth Not available.
UV 1 out of 12
Pollen 7.60 out of 12
Air Quality Not available.
Flu Activity No Activity
METAR KGCK 260054Z 24005KT 7SM CLR 22/11 A2980

More Conditions Fewer Conditions

10-Day Weather Forecast

Almanac

Astronomy

May. 25, 2015 Rise Set
Actual Time
Civil Twilight
Nautical Twilight
Astronomical Twilight
Moon
Length of Visible Light
Length of Day
Tomorrow will be .
, % of the Moon is Illuminated

Today's Extremes

State Highs State Lows

Community

WunderPhotos

Upload Photos

1,824,221 photos uploaded!

WunderBlogs® & News

Nearby

Air Quality

  Air Quality AQ Index Pollutant
Not available.

Snow Depth

Station Depth Elevation

Earthquake Activity

City Distance Mag. Time & Date
Minimum magnitude displayed is 2.5.

Coastal Water Temperatures

Place Temperature

Stations

Nearby Weather Stations

Station Location Temp. Windchill Dew Point Humidity Wind Precip. Elev Updated Type
                   
Special Statement
Statement as of 8:41 PM CDT on May 25, 2015

... Significant weather advisory for northwestern Hodgeman...
southwestern Ness... Finney... northwestern gray and southeastern Lane
counties until 930 PM CDT...

At 840 PM CDT... Doppler radar was tracking a broken line of strong
thunderstorms along a line extending from 12 miles southwest of
Alamota to 11 miles southeast of friend to 2 miles east of
Holcomb... and moving southeast at 15 mph.

Half inch hail and winds in excess of 40 mph will be possible with
these storms.

Locations impacted include...
Garden City... Holcomb... Pierceville... Charleston and Kalvesta.

Precautionary/preparedness actions...

Torrential rainfall is also occurring with these storms... and may
lead to flash flooding. Do not drive your vehicle through flooded
roadways.


Lat... Lon 3818 9992 3796 10032 3777 10072 3795 10108
      3820 10081 3844 10032
time... Mot... loc 0140z 295deg 11kt 3830 10040 3817 10073 3798 10094


Rburg